This is the latest recevied weather packets stored in our database for station/object K4ZZR. If no packets are shown the sender has not sent any weather packets the latest 10 day(s).
| Time | Temp. | Humidity | Pressure | Rain* | Wind** | Luminosity | Snow |
|---|---|---|---|---|---|---|---|
| 1777664366 | 31.67° C | 40% | 1010.4 hPa | 0 mm | - | 757 W/m² | - |
| 1777664064 | 31.67° C | 41% | 1010.5 hPa | 0 mm | - | 769 W/m² | - |
| 1777663762 | 31.67° C | 40% | 1010.6 hPa | 0 mm | - | 782 W/m² | - |
| 1777662550 | 30.56° C | 46% | 1010.8 hPa | 0 mm | - | 820 W/m² | - |
| 1777662246 | 30.56° C | 54% | 1010.8 hPa | 0 mm | - | 827 W/m² | - |
| 1777660724 | 28.89° C | 71% | 1011.6 hPa | 0 mm | - | 623 W/m² | - |
| 1777660118 | 31.67° C | 59% | 1011.5 hPa | 0 mm | - | 912 W/m² | - |
| 1777659815 | 30.56° C | 55% | 1011.2 hPa | 0 mm | - | 919 W/m² | - |
| 1777659512 | 29.44° C | 72% | 1011.2 hPa | 0 mm | - | 915 W/m² | - |
| 1777658906 | 29.44° C | 72% | 1011.8 hPa | 0 mm | - | 1043 W/m² | - |
| 1777655569 | 28.33° C | 76% | 1012.1 hPa | 0 mm | - | 278 W/m² | - |
| 1777654963 | 29.44° C | 61% | 1011.9 hPa | 0 mm | - | 362 W/m² | - |
| 1777654358 | 29.44° C | 61% | 1012.1 hPa | 0 mm | - | 231 W/m² | - |
| 1777653448 | 30° C | 59% | 1011.9 hPa | 0 mm | - | 1050 W/m² | - |
| 1777653146 | 29.44° C | 63% | 1012.3 hPa | 0 mm | - | 1038 W/m² | - |
| 1777652841 | 29.44° C | 63% | 1012.2 hPa | 0 mm | - | 1049 W/m² | - |
| 1777652538 | 30° C | 61% | 1012.4 hPa | 0 mm | - | 915 W/m² | - |
| 1777652235 | 29.44° C | 65% | 1012.4 hPa | 0 mm | - | 1038 W/m² | - |
| 1777651933 | 29.44° C | 64% | 1012.6 hPa | 0 mm | - | 254 W/m² | - |
| 1777651629 | 28.89° C | 67% | 1012.6 hPa | 0 mm | - | 336 W/m² | - |
| 1777651326 | 27.78° C | 67% | 1012.4 hPa | 0 mm | - | 361 W/m² | - |
| 1777651023 | 28.33° C | 66% | 1012.5 hPa | 0 mm | - | 178 W/m² | - |
| 1777650417 | 28.33° C | 68% | 1012.4 hPa | 0 mm | - | 949 W/m² | - |
| 1777650114 | 28.33° C | 68% | 1012.2 hPa | 0 mm | - | 616 W/m² | - |
| 1777649811 | 28.33° C | 68% | 1012.7 hPa | 0 mm | - | 652 W/m² | - |
* Rain latest hour (hover to see other rain measurements)
** Current wind speed in m/s (hover to see current wind gust speed)